createdAt,value
2022-10-18T00:00:25.807Z,100.00
2022-10-18T00:02:53.472Z,100.00
2022-10-18T00:05:21.132Z,100.00
2022-10-18T00:07:48.737Z,100.00
2022-10-18T00:10:16.474Z,100.00
2022-10-18T00:15:14.382Z,100.00
2022-10-18T00:17:42.040Z,100.00
2022-10-18T00:20:10.900Z,100.00
2022-10-18T00:22:39.965Z,100.00
2022-10-18T00:25:09.258Z,100.00
2022-10-18T00:27:37.306Z,100.00
2022-10-18T00:30:07.645Z,100.00
2022-10-18T00:32:37.670Z,100.00
2022-10-18T00:35:06.434Z,100.00
2022-10-18T00:37:34.676Z,100.00
2022-10-18T00:40:02.844Z,100.00
2022-10-18T00:42:32.478Z,100.00
2022-10-18T00:45:20.133Z,100.00
2022-10-18T00:47:51.586Z,100.00
2022-10-18T00:50:20.708Z,100.00
2022-10-18T00:52:50.614Z,100.00
2022-10-18T00:55:18.854Z,100.00
2022-10-18T00:57:46.772Z,100.00
2022-10-18T01:00:15.992Z,100.00
2022-10-18T01:02:45.339Z,100.00
2022-10-18T01:05:14.342Z,100.00
2022-10-18T01:08:07.801Z,100.00
2022-10-18T01:10:43.507Z,100.00
2022-10-18T01:13:25.624Z,100.00
2022-10-18T01:15:59.252Z,100.00
2022-10-18T01:18:30.306Z,100.00
2022-10-18T01:21:10.369Z,100.00
2022-10-18T01:23:50.898Z,100.00
2022-10-18T01:26:29.062Z,100.00
2022-10-18T01:29:06.221Z,100.00
2022-10-18T01:31:39.313Z,100.00
2022-10-18T01:34:09.692Z,100.00
2022-10-18T01:36:39.419Z,100.00
2022-10-18T01:39:09.528Z,100.00
2022-10-18T01:41:38.659Z,100.00
2022-10-18T01:44:08.848Z,100.00
2022-10-18T01:46:38.567Z,100.00
2022-10-18T01:49:06.345Z,100.00
2022-10-18T01:51:34.583Z,100.00
2022-10-18T01:54:02.371Z,100.00
2022-10-18T01:56:36.541Z,100.00
2022-10-18T01:59:13.468Z,100.00
2022-10-18T02:01:49.523Z,100.00
2022-10-18T02:04:23.623Z,100.00
2022-10-18T02:06:56.445Z,100.00
2022-10-18T02:09:32.816Z,100.00
2022-10-18T02:12:01.340Z,100.00
2022-10-18T02:14:29.197Z,100.00
2022-10-18T02:16:59.801Z,100.00
2022-10-18T02:19:29.805Z,100.00
2022-10-18T02:21:58.773Z,100.00
2022-10-18T02:24:30.185Z,100.00
2022-10-18T02:26:57.970Z,100.00
2022-10-18T02:29:26.107Z,100.00
2022-10-18T02:31:59.743Z,100.00
2022-10-18T02:34:30.936Z,100.00
2022-10-18T02:37:00.033Z,100.00
2022-10-18T02:39:31.014Z,100.00
2022-10-18T02:41:59.565Z,100.00
2022-10-18T02:44:28.108Z,100.00
2022-10-18T02:46:55.863Z,100.00
2022-10-18T02:49:25.212Z,100.00
2022-10-18T02:51:52.919Z,100.00
2022-10-18T02:54:20.637Z,100.00
2022-10-18T02:56:48.253Z,100.00
2022-10-18T02:59:16.135Z,100.00
2022-10-18T03:01:43.987Z,100.00
2022-10-18T03:04:11.673Z,100.00
2022-10-18T03:06:40.820Z,100.00
2022-10-18T03:09:08.581Z,100.00
2022-10-18T03:11:36.299Z,100.00
2022-10-18T03:14:04.223Z,100.00
2022-10-18T03:16:31.918Z,100.00
2022-10-18T03:18:59.598Z,100.00
2022-10-18T03:21:27.328Z,100.00
2022-10-18T03:23:56.503Z,100.00
2022-10-18T03:26:24.137Z,100.00
2022-10-18T03:28:51.907Z,100.00
2022-10-18T03:31:19.852Z,100.00
2022-10-18T03:33:47.684Z,100.00
2022-10-18T03:36:15.493Z,100.00
2022-10-18T03:38:43.442Z,100.00
2022-10-18T03:41:12.561Z,100.00
2022-10-18T03:43:40.241Z,100.00
2022-10-18T03:46:08.021Z,100.00
2022-10-18T03:48:35.682Z,100.00
2022-10-18T03:51:03.343Z,100.00
2022-10-18T03:53:31.081Z,100.00
2022-10-18T03:55:58.784Z,100.00
2022-10-18T03:58:27.886Z,100.00
2022-10-18T04:00:56.182Z,100.00
2022-10-18T04:03:24.398Z,100.00
2022-10-18T04:05:52.146Z,100.00
2022-10-18T04:08:20.164Z,100.00
2022-10-18T04:10:48.061Z,100.00
2022-10-18T04:13:15.879Z,100.00
2022-10-18T04:15:45.671Z,100.00
2022-10-18T04:18:13.360Z,100.00
2022-10-18T04:20:41.032Z,100.00
2022-10-18T04:23:08.717Z,100.00
2022-10-18T04:25:36.476Z,100.00
2022-10-18T04:28:04.696Z,100.00
2022-10-18T04:30:32.387Z,100.00
2022-10-18T04:33:01.461Z,100.00
2022-10-18T04:35:29.117Z,100.00
2022-10-18T04:37:56.784Z,100.00
2022-10-18T04:40:24.575Z,100.00
2022-10-18T04:42:52.300Z,100.00
2022-10-18T04:45:19.975Z,100.00
2022-10-18T04:47:47.667Z,100.00
2022-10-18T04:50:16.984Z,100.00
2022-10-18T04:52:44.712Z,100.00
2022-10-18T04:55:12.480Z,100.00
2022-10-18T04:57:40.192Z,100.00
2022-10-18T05:00:08.553Z,100.00
2022-10-18T05:02:36.232Z,100.00
2022-10-18T05:05:04.745Z,100.00
2022-10-18T05:07:33.824Z,100.00
2022-10-18T05:10:01.488Z,100.00
2022-10-18T05:12:29.357Z,100.00
2022-10-18T05:14:57.500Z,100.00
2022-10-18T05:17:25.234Z,100.00
2022-10-18T05:19:52.885Z,100.00
2022-10-18T05:22:20.562Z,100.00
2022-10-18T05:24:49.599Z,100.00
2022-10-18T05:27:17.268Z,100.00
2022-10-18T05:29:44.936Z,100.00
2022-10-18T05:32:12.719Z,100.00
2022-10-18T05:34:40.511Z,100.00
2022-10-18T05:37:08.281Z,100.00
2022-10-18T05:39:35.983Z,100.00
2022-10-18T05:42:05.030Z,100.00
2022-10-18T05:44:32.765Z,100.00
2022-10-18T05:47:00.371Z,100.00
2022-10-18T05:49:28.205Z,100.00
2022-10-18T05:51:55.990Z,100.00
2022-10-18T05:54:23.690Z,100.00
2022-10-18T05:56:51.420Z,100.00
2022-10-18T05:59:20.457Z,100.00
2022-10-18T06:01:48.096Z,100.00
2022-10-18T06:04:17.816Z,100.00
2022-10-18T06:06:45.489Z,100.00
2022-10-18T06:09:13.173Z,100.00
2022-10-18T06:11:40.828Z,100.00
2022-10-18T06:14:08.956Z,100.00
2022-10-18T06:16:38.000Z,100.00
2022-10-18T06:19:05.834Z,100.00
2022-10-18T06:21:33.501Z,100.00
2022-10-18T06:24:01.671Z,100.00
2022-10-18T06:26:29.641Z,100.00
2022-10-18T06:28:57.706Z,100.00
2022-10-18T06:31:25.459Z,100.00
2022-10-18T06:33:54.573Z,100.00
2022-10-18T06:36:23.229Z,100.00
2022-10-18T06:38:51.248Z,100.00
2022-10-18T06:41:19.273Z,100.00
2022-10-18T06:43:49.758Z,100.00
2022-10-18T06:46:17.511Z,100.00
2022-10-18T06:48:45.228Z,100.00
2022-10-18T06:51:15.221Z,100.00
2022-10-18T06:53:53.453Z,100.00
2022-10-18T06:56:30.672Z,100.00
2022-10-18T07:01:31.053Z,100.00
2022-10-18T07:03:58.867Z,100.00
2022-10-18T07:06:28.009Z,100.00
2022-10-18T07:08:56.212Z,100.00
2022-10-18T07:11:26.002Z,100.00
2022-10-18T07:14:00.310Z,100.00
2022-10-18T07:16:28.203Z,100.00
2022-10-18T07:18:56.180Z,100.00
2022-10-18T07:21:25.440Z,100.00
2022-10-18T07:23:54.937Z,100.00
2022-10-18T07:26:25.249Z,100.00
2022-10-18T07:28:55.486Z,100.00
2022-10-18T07:31:23.583Z,100.00
2022-10-18T07:33:51.705Z,100.00
2022-10-18T07:36:21.187Z,100.00
2022-10-18T07:38:48.916Z,100.00
2022-10-18T07:41:17.960Z,100.00
2022-10-18T07:43:47.348Z,100.00
2022-10-18T07:46:16.174Z,100.00
2022-10-18T07:48:44.234Z,100.00
2022-10-18T07:51:12.354Z,100.00
2022-10-18T07:53:40.582Z,100.00
2022-10-18T07:56:11.890Z,100.00
2022-10-18T07:58:40.968Z,100.00
2022-10-18T08:01:09.781Z,100.00
2022-10-18T08:03:38.315Z,100.00
2022-10-18T08:06:09.045Z,100.00
2022-10-18T08:08:37.586Z,100.00
2022-10-18T08:11:06.876Z,100.00
2022-10-18T08:13:34.604Z,100.00
2022-10-18T08:16:05.075Z,100.00
2022-10-18T08:18:32.997Z,100.00
2022-10-18T08:21:00.805Z,100.00
2022-10-18T08:23:28.462Z,100.00
2022-10-18T08:25:56.398Z,100.00
2022-10-18T08:28:24.109Z,100.00
2022-10-18T08:30:51.780Z,98.69
2022-10-18T08:33:20.776Z,99.60
2022-10-18T08:35:56.052Z,98.95
2022-10-18T08:38:23.680Z,96.14
2022-10-18T08:40:51.435Z,90.94
2022-10-18T08:43:25.970Z,94.17
2022-10-18T08:45:54.898Z,92.40
2022-10-18T08:48:28.648Z,92.47
2022-10-18T08:50:57.602Z,92.20
2022-10-18T08:53:28.837Z,86.46
2022-10-18T08:55:59.178Z,87.20
2022-10-18T08:58:30.828Z,87.16
2022-10-18T09:01:05.468Z,87.07
2022-10-18T09:03:51.942Z,86.27
2022-10-18T09:06:23.622Z,85.32
2022-10-18T09:09:02.618Z,86.79
2022-10-18T09:11:42.953Z,82.31
2022-10-18T09:14:30.004Z,81.69
2022-10-18T09:17:05.128Z,80.00
2022-10-18T09:19:55.219Z,82.14
2022-10-18T09:22:26.835Z,79.99
2022-10-18T09:25:03.534Z,81.06
2022-10-18T09:27:37.098Z,79.55
2022-10-18T09:30:09.089Z,80.78
2022-10-18T09:32:46.775Z,78.28
2022-10-18T09:35:18.273Z,78.31
2022-10-18T09:37:46.526Z,77.87
2022-10-18T09:40:19.015Z,78.64
2022-10-18T09:42:54.183Z,78.31
2022-10-18T09:45:29.082Z,78.45
2022-10-18T09:48:04.479Z,79.31
2022-10-18T09:50:38.463Z,76.90
2022-10-18T09:53:13.169Z,79.55
2022-10-18T09:55:45.853Z,77.29
2022-10-18T09:58:14.900Z,78.96
2022-10-18T10:00:49.692Z,77.98
2022-10-18T10:03:17.340Z,78.06
2022-10-18T10:05:46.499Z,76.08
2022-10-18T10:08:14.165Z,76.38
2022-10-18T10:10:48.035Z,75.83
2022-10-18T10:13:22.127Z,75.32
2022-10-18T10:15:54.449Z,77.00
2022-10-18T10:18:23.145Z,75.57
2022-10-18T10:20:53.908Z,74.51
2022-10-18T10:23:23.088Z,74.27
2022-10-18T10:25:53.679Z,72.73
2022-10-18T10:28:23.469Z,74.90
2022-10-18T10:30:51.690Z,72.76
2022-10-18T10:33:35.012Z,72.53
2022-10-18T10:36:07.950Z,71.94
2022-10-18T10:38:35.631Z,72.10
2022-10-18T10:41:03.276Z,71.78
2022-10-18T10:43:37.695Z,70.13
2022-10-18T10:46:09.057Z,72.05
2022-10-18T10:48:53.768Z,71.20
2022-10-18T10:51:31.947Z,68.36
2022-10-18T10:54:01.769Z,69.32
2022-10-18T10:56:31.426Z,68.63
2022-10-18T10:59:07.717Z,70.29
2022-10-18T11:01:36.403Z,68.25
2022-10-18T11:04:23.059Z,70.12
2022-10-18T11:06:58.999Z,68.77
2022-10-18T11:09:38.205Z,65.59
2022-10-18T11:12:14.779Z,66.32
2022-10-18T11:14:45.517Z,63.33
2022-10-18T11:17:19.254Z,64.71
2022-10-18T11:20:09.657Z,65.86
2022-10-18T11:22:43.324Z,62.73
2022-10-18T11:25:14.560Z,67.44
2022-10-18T11:27:44.301Z,64.18
2022-10-18T11:30:32.276Z,64.45
2022-10-18T11:33:06.695Z,66.46
2022-10-18T11:35:40.523Z,63.33
2022-10-18T11:38:19.398Z,66.39
2022-10-18T11:40:55.220Z,60.98
2022-10-18T11:43:30.217Z,64.00
2022-10-18T11:46:02.137Z,62.83
2022-10-18T11:48:43.504Z,61.49
2022-10-18T11:51:16.002Z,61.58
2022-10-18T11:53:52.115Z,62.34
2022-10-18T11:56:25.129Z,60.83
2022-10-18T11:59:07.453Z,63.03
2022-10-18T12:01:40.590Z,61.36
2022-10-18T12:04:11.477Z,57.56
2022-10-18T12:06:41.299Z,62.18
2022-10-18T12:09:17.670Z,59.65
2022-10-18T12:11:50.216Z,58.01
2022-10-18T12:14:27.133Z,63.29
2022-10-18T12:17:20.379Z,59.10
2022-10-18T12:19:45.727Z,59.16
2022-10-18T12:22:15.958Z,61.93
2022-10-18T12:24:44.992Z,57.53
2022-10-18T12:27:14.971Z,58.17
2022-10-18T12:29:50.699Z,55.94
2022-10-18T12:32:21.200Z,61.34
2022-10-18T12:34:51.204Z,58.66
2022-10-18T12:37:33.541Z,59.63
2022-10-18T12:40:10.187Z,60.32
2022-10-18T12:42:44.059Z,60.56
2022-10-18T12:45:25.412Z,59.02
2022-10-18T12:47:53.268Z,58.73
2022-10-18T12:50:30.103Z,57.34
2022-10-18T12:53:08.010Z,58.42
2022-10-18T12:55:40.847Z,60.35
2022-10-18T12:58:27.158Z,59.51
2022-10-18T13:00:57.329Z,60.50
2022-10-18T13:03:53.963Z,59.05
2022-10-18T13:06:22.499Z,61.06
2022-10-18T13:09:22.011Z,58.38
2022-10-18T13:11:49.834Z,59.91
2022-10-18T13:14:35.436Z,58.04
2022-10-18T13:17:19.730Z,61.10
2022-10-18T13:20:20.467Z,60.53
2022-10-18T13:22:55.222Z,61.19
2022-10-18T13:25:28.580Z,59.22
2022-10-18T13:28:00.396Z,57.54
2022-10-18T13:30:32.683Z,60.13
2022-10-18T13:33:09.514Z,60.57
2022-10-18T13:35:58.353Z,59.46
2022-10-18T13:38:50.465Z,59.07
2022-10-18T13:41:21.399Z,60.39
2022-10-18T13:44:12.349Z,59.57
2022-10-18T13:47:13.850Z,59.00
2022-10-18T13:49:55.982Z,60.75
2022-10-18T13:52:34.433Z,62.48
2022-10-18T13:55:13.877Z,61.77
2022-10-18T13:57:48.917Z,62.45
2022-10-18T14:00:37.562Z,62.49
2022-10-18T14:03:55.678Z,62.49
2022-10-18T14:06:19.281Z,62.81
2022-10-18T14:08:50.408Z,63.00
2022-10-18T14:11:26.181Z,61.98
2022-10-18T14:13:57.152Z,64.97
2022-10-18T14:16:32.087Z,63.26
2022-10-18T14:19:06.390Z,64.03
2022-10-18T14:21:38.585Z,64.93
2022-10-18T14:24:16.056Z,64.53
2022-10-18T14:26:43.670Z,66.22
2022-10-18T14:29:18.066Z,65.04
2022-10-18T14:31:52.882Z,65.47
2022-10-18T14:34:20.532Z,65.38
2022-10-18T14:36:49.798Z,65.08
2022-10-18T14:39:21.074Z,63.12
2022-10-18T14:41:50.448Z,64.19
2022-10-18T14:44:21.538Z,63.72
2022-10-18T14:46:50.740Z,62.54
2022-10-18T14:49:19.159Z,61.91
2022-10-18T14:51:49.250Z,64.37
2022-10-18T14:54:19.362Z,64.45
2022-10-18T14:56:47.184Z,65.05
2022-10-18T14:59:19.977Z,66.16
2022-10-18T15:01:53.820Z,65.59
2022-10-18T15:04:26.279Z,66.30
2022-10-18T15:06:56.245Z,65.47
2022-10-18T15:09:24.795Z,66.40
2022-10-18T15:11:54.731Z,66.45
2022-10-18T15:14:23.970Z,65.71
2022-10-18T15:16:51.801Z,66.85
2022-10-18T15:19:30.739Z,69.84
2022-10-18T15:22:30.229Z,68.74
2022-10-18T15:25:07.637Z,67.23
2022-10-18T15:27:37.473Z,68.18
2022-10-18T15:30:11.063Z,66.94
2022-10-18T15:32:40.340Z,67.58
2022-10-18T15:35:09.755Z,68.82
2022-10-18T15:37:39.263Z,70.11
2022-10-18T15:40:33.086Z,70.34
2022-10-18T15:43:03.420Z,70.70
2022-10-18T15:45:38.241Z,69.91
2022-10-18T15:48:21.153Z,72.39
2022-10-18T15:50:50.407Z,71.63
2022-10-18T15:53:37.848Z,71.60
2022-10-18T15:56:07.303Z,71.59
2022-10-18T15:58:45.286Z,72.78
2022-10-18T16:01:19.646Z,73.40
2022-10-18T16:03:48.038Z,74.32
2022-10-18T16:06:18.225Z,73.40
2022-10-18T16:08:50.966Z,74.28
2022-10-18T16:11:20.489Z,73.96
2022-10-18T16:13:48.808Z,73.59
2022-10-18T16:16:20.466Z,77.22
2022-10-18T16:18:48.731Z,80.30
2022-10-18T16:21:20.725Z,82.88
2022-10-18T16:23:48.523Z,84.32
2022-10-18T16:26:17.309Z,83.63
2022-10-18T16:28:45.823Z,83.29
2022-10-18T16:31:18.956Z,85.39
2022-10-18T16:33:46.908Z,86.09
2022-10-18T16:36:15.938Z,84.40
2022-10-18T16:38:44.039Z,83.70
2022-10-18T16:41:13.274Z,82.73
2022-10-18T16:43:41.231Z,84.06
2022-10-18T16:46:10.899Z,83.70
2022-10-18T16:48:40.111Z,83.89
2022-10-18T16:51:07.879Z,83.90
2022-10-18T16:53:35.578Z,84.07
2022-10-18T16:56:04.778Z,85.02
2022-10-18T16:58:34.259Z,85.03
2022-10-18T17:01:04.167Z,85.76
2022-10-18T17:03:34.564Z,86.02
2022-10-18T17:06:03.853Z,86.12
2022-10-18T17:08:31.564Z,86.39
2022-10-18T17:11:01.716Z,86.85
2022-10-18T17:13:29.536Z,87.21
2022-10-18T17:15:57.210Z,87.00
2022-10-18T17:18:27.578Z,87.53
2022-10-18T17:20:56.545Z,87.60
2022-10-18T17:23:25.662Z,88.30
2022-10-18T17:26:05.292Z,88.35
2022-10-18T17:28:38.378Z,88.21
2022-10-18T17:31:07.415Z,88.41
2022-10-18T17:33:35.081Z,88.93
2022-10-18T17:36:02.859Z,89.37
2022-10-18T17:38:31.971Z,89.45
2022-10-18T17:40:59.917Z,89.74
2022-10-18T17:43:28.849Z,90.30
2022-10-18T17:45:57.321Z,91.85
2022-10-18T17:48:25.547Z,95.49
2022-10-18T17:50:53.264Z,94.58
2022-10-18T17:53:22.892Z,97.80
2022-10-18T17:55:52.041Z,100.00
2022-10-18T17:58:19.660Z,100.00
2022-10-18T18:00:47.295Z,99.90
2022-10-18T18:03:14.990Z,99.84
2022-10-18T18:05:42.703Z,99.24
2022-10-18T18:08:10.340Z,100.00
2022-10-18T18:10:38.060Z,97.94
2022-10-18T18:13:07.135Z,97.85
2022-10-18T18:15:34.777Z,97.80
2022-10-18T18:18:02.475Z,98.49
2022-10-18T18:20:30.150Z,98.07
2022-10-18T18:22:57.874Z,98.56
2022-10-18T18:25:25.519Z,98.58
2022-10-18T18:27:53.158Z,98.03
2022-10-18T18:30:23.109Z,97.73
2022-10-18T18:32:50.717Z,98.59
2022-10-18T18:35:18.570Z,99.36
2022-10-18T18:37:46.258Z,100.00
2022-10-18T18:40:13.938Z,100.00
2022-10-18T18:42:41.609Z,100.00
2022-10-18T18:45:09.521Z,100.00
2022-10-18T18:47:39.683Z,100.00
2022-10-18T18:50:08.228Z,100.00
2022-10-18T18:52:36.094Z,100.00
2022-10-18T18:55:03.962Z,100.00
2022-10-18T18:57:31.891Z,100.00
2022-10-18T18:59:59.739Z,100.00
2022-10-18T19:02:27.458Z,100.00
2022-10-18T19:04:56.483Z,100.00
2022-10-18T19:07:24.124Z,100.00
2022-10-18T19:09:52.099Z,100.00
2022-10-18T19:12:21.313Z,100.00
2022-10-18T19:14:49.107Z,100.00
2022-10-18T19:17:16.814Z,100.00
2022-10-18T19:19:44.783Z,100.00
2022-10-18T19:22:13.930Z,100.00
2022-10-18T19:24:41.616Z,100.00
2022-10-18T19:27:12.402Z,100.00
2022-10-18T19:29:41.374Z,100.00
2022-10-18T19:32:12.037Z,100.00
2022-10-18T19:34:40.440Z,100.00
2022-10-18T19:37:09.396Z,100.00
2022-10-18T19:39:38.815Z,100.00
2022-10-18T19:42:08.909Z,100.00
2022-10-18T19:44:37.815Z,100.00
2022-10-18T19:47:06.220Z,100.00
2022-10-18T19:49:34.240Z,100.00
2022-10-18T19:52:01.886Z,100.00
2022-10-18T19:54:29.751Z,100.00
2022-10-18T19:56:58.904Z,100.00
2022-10-18T19:59:27.217Z,100.00
2022-10-18T20:01:55.023Z,100.00
2022-10-18T20:04:22.797Z,100.00
2022-10-18T20:06:50.519Z,100.00
2022-10-18T20:09:20.644Z,100.00
2022-10-18T20:11:48.654Z,100.00
2022-10-18T20:14:17.770Z,100.00
2022-10-18T20:16:45.453Z,100.00
2022-10-18T20:19:13.171Z,100.00
2022-10-18T20:21:40.886Z,100.00
2022-10-18T20:24:09.298Z,100.00
2022-10-18T20:26:37.056Z,100.00
2022-10-18T20:29:05.371Z,100.00
2022-10-18T20:31:38.275Z,100.00
2022-10-18T20:34:07.881Z,100.00
2022-10-18T20:36:35.974Z,100.00
2022-10-18T20:39:04.960Z,100.00
2022-10-18T20:41:34.023Z,100.00
2022-10-18T20:44:03.059Z,100.00
2022-10-18T20:46:33.417Z,100.00
2022-10-18T20:49:03.308Z,100.00
2022-10-18T20:51:30.930Z,100.00
2022-10-18T20:53:58.895Z,100.00
2022-10-18T20:56:27.440Z,100.00
2022-10-18T20:58:57.096Z,100.00
2022-10-18T21:01:26.358Z,100.00
2022-10-18T21:03:55.490Z,100.00
2022-10-18T21:06:25.799Z,100.00
2022-10-18T21:08:54.378Z,100.00
2022-10-18T21:11:22.155Z,100.00
2022-10-18T21:13:53.209Z,100.00
2022-10-18T21:16:21.160Z,100.00
2022-10-18T21:18:49.778Z,100.00
2022-10-18T21:21:18.770Z,100.00
2022-10-18T21:23:48.522Z,100.00
2022-10-18T21:26:17.725Z,100.00
2022-10-18T21:28:46.022Z,100.00
2022-10-18T21:31:15.920Z,100.00
2022-10-18T21:33:44.196Z,100.00
2022-10-18T21:36:12.608Z,100.00
2022-10-18T21:38:40.402Z,100.00
2022-10-18T21:41:13.328Z,100.00
2022-10-18T21:43:42.202Z,100.00
2022-10-18T21:46:10.964Z,100.00
2022-10-18T21:48:39.126Z,100.00
2022-10-18T21:51:08.373Z,100.00
2022-10-18T21:53:36.753Z,100.00
2022-10-18T21:56:06.872Z,100.00
2022-10-18T21:58:36.192Z,100.00
2022-10-18T22:01:08.132Z,100.00
2022-10-18T22:03:36.405Z,100.00
2022-10-18T22:06:07.503Z,100.00
2022-10-18T22:08:35.513Z,100.00
2022-10-18T22:11:04.068Z,100.00
2022-10-18T22:13:31.915Z,100.00
2022-10-18T22:16:02.832Z,100.00
2022-10-18T22:18:30.984Z,100.00
2022-10-18T22:21:00.946Z,100.00
2022-10-18T22:23:32.395Z,100.00
2022-10-18T22:26:03.574Z,100.00
2022-10-18T22:28:31.251Z,100.00
2022-10-18T22:30:59.124Z,100.00
2022-10-18T22:33:28.167Z,100.00
2022-10-18T22:35:55.808Z,100.00
2022-10-18T22:38:23.446Z,100.00
2022-10-18T22:40:51.820Z,100.00
2022-10-18T22:43:19.478Z,100.00
2022-10-18T22:45:47.090Z,100.00
2022-10-18T22:48:14.773Z,100.00
2022-10-18T22:50:43.774Z,100.00
2022-10-18T22:53:11.455Z,100.00
2022-10-18T22:55:39.147Z,100.00
2022-10-18T22:58:06.813Z,100.00
2022-10-18T23:00:34.549Z,100.00
2022-10-18T23:03:02.237Z,100.00
2022-10-18T23:05:29.877Z,100.00
2022-10-18T23:07:58.915Z,100.00
2022-10-18T23:10:26.600Z,100.00
2022-10-18T23:12:54.228Z,100.00
2022-10-18T23:15:21.852Z,100.00
2022-10-18T23:17:50.057Z,100.00
2022-10-18T23:20:17.726Z,100.00
2022-10-18T23:22:45.399Z,100.00
2022-10-18T23:25:14.578Z,100.00
2022-10-18T23:30:12.032Z,100.00
2022-10-18T23:32:40.250Z,100.00
2022-10-18T23:35:08.521Z,100.00
2022-10-18T23:37:36.648Z,100.00
2022-10-18T23:40:04.942Z,100.00
2022-10-18T23:42:34.050Z,100.00
2022-10-18T23:45:01.697Z,100.00
2022-10-18T23:47:29.468Z,100.00
2022-10-18T23:49:58.850Z,100.00
2022-10-18T23:52:26.516Z,100.00
2022-10-18T23:54:54.125Z,100.00
2022-10-18T23:57:21.794Z,100.00
2022-10-18T23:59:50.744Z,100.00
